New Oxford, Pennsylvania
Current Conditions -  °F | °C
As of 12:53 PM on Wednesday 28 Jan 2015 (Local Time) from KTHV Reporting Station
Clear Clear  
Wind Chill: 18°   Ceiling: Unl
Heat Index: 29°   Visibility: 10mi
Dew Point:   Wind: 14mph
Humidity: 32%   Direction: 290°WNW
Pressure: 30.18"   Gusts: 24mph
Location:  39.86°N, 77.06°W
Report Text: KTHV 281753Z AUTO 29012G21KT 10SM CLR M02/M17 A3018 RMK AO2 SLP229 T10171167 11017 21122 58004
Loading
Personal Weather Stations






























Interactive Weather Map New forecast layout! Learn more

10-Day Weather Forecast

Advertisements
Track Severe Weather on mobile